Weather at Arvaikheer Airport

Public forecast

Using degrees Celsius for public forecast. Weather courtesy of forecast.io.

Closest aviation weather report (METAR) to Arvaikheer Airport

Closest report is Buyant-Ukhaa International Airport, 188.3 nm (348.7 km) ENE. Retrieved 2021/04/13 18:00 UTC (34 minutes ago):

ZMUB 131800Z 00000MPS CAVOK M07/M09 Q1011 NOSIG RMK QFE6514 81

Closest aviation forecast (TAF) to Arvaikheer Airport

Closest forecast is Buyant-Ukhaa International Airport, 188.3 nm (348.7 km) ENE. Retrieved 2021/04/13 18:57 UTC (0 seconds ago):

TAF TAF ZMUB 131650Z 1318/1424 VRB02MPS 9999 SCT100 TNM07/1322Z TX07/1406Z BECMG 1404/1406 34008MPS SCT033 BKN100 BECMG 1408/1410 6000 SNRA BLSN SCT027 BKN080 TEMPO 1410/1420 3000 BECMG 1416/1419 33005MPS